Time;durP1;ratioP1;P1;durP2;ratioP2;P2;SDS_P1;SDS_P2;PMS_P1;PMS_P2;Temp;Humidity;BMP_temperature;BMP_pressure;BME280_temperature;BME280_humidity;BME280_pressure;Samples;Min_cycle;Max_cycle;Signal;HPM_P1;HPM_P2
2022/03/09 00:00:28;;;;;;;18.40;13.82;;;2.10;63.80;;;;;;4944572;29;20202;-86
2022/03/09 00:02:55;;;;;;;21.15;16.27;;;2.10;63.90;;;;;;4949749;28;20736;-84
2022/03/09 00:05:23;;;;;;;22.45;15.18;;;2.10;64.10;;;;;;4942191;29;20265;-87
2022/03/09 00:07:50;;;;;;;20.92;13.75;;;2.10;64.30;;;;;;4940453;29;20199;-84
2022/03/09 00:10:16;;;;;;;18.70;13.48;;;2.10;64.50;;;;;;4937369;29;20228;-85
2022/03/09 00:12:43;;;;;;;19.23;14.48;;;2.10;64.50;;;;;;4935956;29;20291;-85
2022/03/09 00:15:10;;;;;;;22.05;14.98;;;2.10;64.50;;;;;;4942925;29;20206;-87
2022/03/09 00:17:37;;;;;;;23.13;16.25;;;2.20;64.30;;;;;;4944978;29;20205;-85
2022/03/09 00:20:05;;;;;;;21.05;14.73;;;2.10;64.30;;;;;;4944794;29;20201;-86
2022/03/09 00:22:33;;;;;;;20.17;14.10;;;2.00;64.20;;;;;;4951713;28;20198;-86
2022/03/09 00:25:00;;;;;;;24.10;16.42;;;1.90;64.70;;;;;;4949579;29;20174;-87
2022/03/09 00:27:26;;;;;;;23.60;15.38;;;1.80;65.00;;;;;;4947075;28;20205;-84
2022/03/09 00:29:53;;;;;;;18.42;15.85;;;1.90;65.50;;;;;;4950030;28;20221;-88
2022/03/09 00:32:20;;;;;;;19.85;14.38;;;1.80;65.00;;;;;;4948315;28;20195;-85
2022/03/09 00:34:46;;;;;;;24.42;17.00;;;1.70;65.00;;;;;;4946189;29;20209;-85
2022/03/09 00:37:13;;;;;;;22.40;13.60;;;1.60;65.70;;;;;;4935033;29;20213;-85
2022/03/09 00:39:41;;;;;;;15.98;13.13;;;1.50;66.50;;;;;;4934202;29;20588;-85
2022/03/09 00:42:08;;;;;;;23.13;15.68;;;1.40;67.70;;;;;;4933915;29;20229;-85
2022/03/09 00:44:35;;;;;;;16.25;14.05;;;1.40;68.20;;;;;;4934141;29;20205;-85
2022/03/09 00:47:02;;;;;;;24.95;14.02;;;1.30;68.30;;;;;;4933403;29;20197;-85
2022/03/09 00:49:28;;;;;;;28.50;15.70;;;1.30;68.30;;;;;;4940632;29;20202;-85
2022/03/09 00:51:55;;;;;;;26.35;16.17;;;1.30;68.50;;;;;;4935172;29;20225;-86
2022/03/09 00:54:22;;;;;;;21.83;14.55;;;1.30;68.60;;;;;;4939352;29;20191;-85
2022/03/09 00:56:50;;;;;;;22.23;16.13;;;1.30;68.60;;;;;;4934477;29;20889;-84
2022/03/09 00:59:17;;;;;;;20.23;15.07;;;1.40;68.70;;;;;;4936265;29;20214;-86
2022/03/09 01:01:44;;;;;;;21.50;12.75;;;1.60;68.50;;;;;;4932439;29;20717;-85
2022/03/09 01:04:11;;;;;;;21.52;15.15;;;1.60;68.30;;;;;;4946817;29;20209;-82
2022/03/09 01:06:37;;;;;;;24.17;14.35;;;1.50;68.20;;;;;;4945039;29;20206;-84
2022/03/09 01:09:04;;;;;;;17.98;13.18;;;1.40;68.40;;;;;;4939059;29;20579;-86
2022/03/09 01:11:32;;;;;;;20.92;13.75;;;1.40;68.80;;;;;;4941913;29;20218;-85
2022/03/09 01:14:01;;;;;;;17.73;14.02;;;1.30;69.30;;;;;;4935160;29;20234;-83
2022/03/09 01:16:32;;;;;;;21.50;14.98;;;1.20;69.50;;;;;;4932028;29;20230;-86
2022/03/09 01:18:58;;;;;;;21.80;13.90;;;1.20;70.20;;;;;;4937405;29;20376;-86
2022/03/09 01:21:25;;;;;;;19.08;14.23;;;1.20;70.30;;;;;;4938860;29;20311;-85
2022/03/09 01:23:52;;;;;;;22.08;14.50;;;1.20;70.30;;;;;;4941780;29;20767;-86
2022/03/09 01:26:19;;;;;;;21.98;14.88;;;1.20;70.20;;;;;;4934177;29;20206;-85
2022/03/09 01:28:45;;;;;;;24.17;15.70;;;1.10;70.00;;;;;;4937998;29;20194;-85
2022/03/09 01:31:13;;;;;;;23.58;15.38;;;1.10;69.90;;;;;;4932788;29;20231;-86
2022/03/09 01:33:40;;;;;;;24.02;15.50;;;1.20;69.90;;;;;;4932437;29;20194;-86
2022/03/09 01:36:07;;;;;;;23.13;14.70;;;1.20;69.50;;;;;;4934801;29;20214;-86
2022/03/09 01:38:34;;;;;;;22.25;16.17;;;1.20;69.20;;;;;;4946323;29;20237;-86
2022/03/09 01:41:01;;;;;;;25.45;15.80;;;1.10;69.10;;;;;;4935607;29;20224;-85
2022/03/09 01:43:28;;;;;;;24.40;15.43;;;1.10;69.30;;;;;;4939464;29;20281;-86
2022/03/09 01:45:55;;;;;;;25.40;14.07;;;1.00;69.70;;;;;;4949555;29;20206;-88
2022/03/09 01:48:23;;;;;;;23.65;13.50;;;0.90;70.20;;;;;;4943091;29;20217;-85
2022/03/09 01:50:50;;;;;;;24.10;14.82;;;0.90;70.20;;;;;;4939787;29;20224;-85
2022/03/09 01:53:18;;;;;;;22.85;14.90;;;1.00;70.20;;;;;;4942065;29;20194;-86
2022/03/09 01:55:44;;;;;;;21.52;12.82;;;1.00;70.10;;;;;;4935625;29;20217;-85
2022/03/09 01:58:11;;;;;;;21.38;14.35;;;0.90;70.30;;;;;;4934625;29;20198;-85
2022/03/09 02:00:38;;;;;;;22.88;13.40;;;0.80;70.40;;;;;;4934055;29;20222;-85
2022/03/09 02:03:05;;;;;;;20.00;13.38;;;0.80;71.20;;;;;;4938889;29;20209;-85
2022/03/09 02:05:34;;;;;;;22.00;14.63;;;0.80;71.70;;;;;;4935764;29;20570;-85
2022/03/09 02:10:45;;;;;;;20.55;13.82;;;0.90;72.60;;;;;;4932614;29;20294;-85
2022/03/09 02:13:12;;;;;;;16.70;12.15;;;0.90;73.00;;;;;;4940380;29;20958;-84
2022/03/09 02:15:39;;;;;;;19.48;14.10;;;1.00;73.60;;;;;;4942138;29;20202;-86
2022/03/09 02:18:06;;;;;;;28.15;15.23;;;0.90;73.70;;;;;;4942117;29;20654;-85
2022/03/09 02:20:37;;;;;;;19.70;14.38;;;0.90;73.80;;;;;;4952926;28;20237;-89
2022/03/09 02:23:05;;;;;;;22.52;15.57;;;0.80;73.30;;;;;;4937246;29;20191;-85
2022/03/09 02:25:32;;;;;;;17.33;13.48;;;0.80;73.00;;;;;;4940692;29;20224;-85
2022/03/09 02:28:02;;;;;;;25.75;14.20;;;0.90;72.60;;;;;;4935395;29;20210;-83
2022/03/09 02:30:28;;;;;;;25.45;14.35;;;0.80;72.10;;;;;;4946994;28;20286;-88
2022/03/09 02:32:55;;;;;;;20.48;13.02;;;0.70;72.00;;;;;;4939532;29;20199;-86
2022/03/09 02:35:22;;;;;;;18.08;13.73;;;0.50;72.80;;;;;;4948902;28;20209;-86
2022/03/09 02:37:49;;;;;;;22.40;14.20;;;0.50;74.90;;;;;;4934270;29;20567;-86
2022/03/09 02:40:17;;;;;;;19.77;13.75;;;0.50;75.00;;;;;;4937038;29;20222;-85
2022/03/09 02:42:44;;;;;;;23.42;13.90;;;0.50;75.20;;;;;;4932582;29;20202;-85
2022/03/09 02:45:12;;;;;;;17.83;13.05;;;0.50;75.10;;;;;;4936636;29;20548;-85
2022/03/09 02:47:40;;;;;;;20.15;14.23;;;0.50;74.70;;;;;;4948433;29;20199;-84
2022/03/09 02:50:07;;;;;;;19.27;14.25;;;0.40;74.50;;;;;;4942760;29;20207;-88
2022/03/09 02:52:38;;;;;;;20.90;13.02;;;0.50;74.50;;;;;;4939566;29;20199;-85
2022/03/09 02:55:05;;;;;;;18.48;12.55;;;0.50;74.00;;;;;;4937199;29;20198;-85
2022/03/09 02:57:33;;;;;;;19.85;14.60;;;0.40;73.90;;;;;;4942887;29;20204;-86
2022/03/09 03:00:00;;;;;;;22.00;14.10;;;0.40;74.10;;;;;;4941019;29;20223;-85
2022/03/09 03:02:27;;;;;;;20.05;12.80;;;0.40;73.90;;;;;;4937172;29;20206;-85
2022/03/09 03:04:53;;;;;;;22.67;13.80;;;0.40;73.90;;;;;;4941096;29;20203;-86
2022/03/09 03:07:20;;;;;;;18.92;13.95;;;0.50;73.70;;;;;;4938013;29;20198;-86
2022/03/09 03:09:47;;;;;;;20.58;13.10;;;0.60;73.50;;;;;;4953417;29;20185;-86
2022/03/09 03:12:13;;;;;;;21.50;14.30;;;0.50;72.80;;;;;;4947150;29;20219;-87
2022/03/09 03:14:42;;;;;;;22.55;14.82;;;0.50;72.70;;;;;;4947188;29;20207;-87
2022/03/09 03:17:11;;;;;;;21.85;15.15;;;0.50;73.00;;;;;;4936725;29;20211;-87
2022/03/09 03:19:38;;;;;;;19.83;14.60;;;0.50;73.00;;;;;;4949963;29;20221;-83
2022/03/09 03:22:05;;;;;;;22.67;14.45;;;0.40;73.30;;;;;;4938667;29;20235;-83
2022/03/09 03:24:32;;;;;;;20.48;13.75;;;0.30;73.60;;;;;;4942899;29;20183;-82
2022/03/09 03:26:58;;;;;;;19.83;14.13;;;0.30;73.90;;;;;;4937944;29;20198;-84
2022/03/09 03:29:25;;;;;;;23.02;15.05;;;0.20;74.30;;;;;;4941245;29;20190;-82
2022/03/09 03:31:53;;;;;;;20.30;15.02;;;0.20;74.80;;;;;;4953799;28;20222;-81
2022/03/09 03:34:20;;;;;;;23.55;13.52;;;0.10;75.00;;;;;;4946430;28;20604;-83
2022/03/09 03:36:47;;;;;;;17.17;13.90;;;0.10;75.30;;;;;;4933923;29;20212;-81
2022/03/09 03:39:14;;;;;;;20.83;15.20;;;0.10;75.50;;;;;;4933265;29;20218;-83
2022/03/09 03:41:41;;;;;;;19.17;14.60;;;0.10;75.60;;;;;;4936932;29;20233;-83
2022/03/09 03:44:07;;;;;;;24.23;15.95;;;0.20;75.80;;;;;;4940061;29;20210;-82
2022/03/09 03:46:34;;;;;;;21.92;15.38;;;0.20;75.70;;;;;;4935930;29;20227;-83
2022/03/09 03:49:02;;;;;;;16.65;13.02;;;0.20;75.90;;;;;;4938716;29;20243;-82
2022/03/09 03:51:29;;;;;;;21.30;14.45;;;0.20;76.60;;;;;;4936614;29;20228;-82
2022/03/09 03:53:56;;;;;;;25.27;14.98;;;0.20;76.60;;;;;;4942519;29;20221;-83
2022/03/09 03:56:23;;;;;;;22.05;15.23;;;0.10;76.60;;;;;;4938624;29;20207;-83
2022/03/09 03:58:49;;;;;;;21.65;14.98;;;0.10;77.00;;;;;;4935515;29;20194;-82
2022/03/09 04:01:16;;;;;;;18.52;14.05;;;0.10;77.20;;;;;;4937001;29;20214;-83
2022/03/09 04:03:42;;;;;;;20.90;13.60;;;0.00;77.40;;;;;;4936285;29;20658;-82
2022/03/09 04:06:10;;;;;;;22.40;13.45;;;0.00;77.70;;;;;;4940374;29;20195;-83
2022/03/09 04:08:37;;;;;;;20.88;14.65;;;0.10;77.60;;;;;;4946923;28;20196;-81
2022/03/09 04:11:04;;;;;;;23.13;16.13;;;0.10;77.30;;;;;;4946821;28;20222;-83
2022/03/09 04:13:31;;;;;;;21.50;14.10;;;0.10;77.00;;;;;;4945691;29;20261;-82
2022/03/09 04:15:57;;;;;;;20.50;15.50;;;0.20;77.00;;;;;;4935695;29;20202;-82
2022/03/09 04:18:24;;;;;;;20.35;14.40;;;0.20;76.70;;;;;;4933964;29;20198;-80
2022/03/09 04:20:51;;;;;;;23.65;14.73;;;0.10;76.50;;;;;;4931353;29;20222;-82
2022/03/09 04:23:19;;;;;;;23.60;14.95;;;0.00;76.90;;;;;;4935474;29;20575;-82
2022/03/09 04:25:46;;;;;;;17.00;11.93;;;-0.10;77.30;;;;;;4935093;29;20301;-82
2022/03/09 04:28:12;;;;;;;17.02;12.15;;;-0.10;77.30;;;;;;4936788;29;20202;-81
2022/03/09 04:30:39;;;;;;;20.90;13.52;;;-0.10;77.30;;;;;;4942921;29;20211;-81
2022/03/09 04:33:06;;;;;;;21.23;14.05;;;0.00;77.20;;;;;;4944055;29;20202;-82
2022/03/09 04:35:32;;;;;;;21.23;14.57;;;-0.10;77.10;;;;;;4940509;29;20198;-82
2022/03/09 04:37:59;;;;;;;18.42;11.80;;;-0.20;77.20;;;;;;4939755;29;20195;-82
2022/03/09 04:40:27;;;;;;;20.60;12.45;;;-0.20;77.20;;;;;;4943067;29;20215;-81
2022/03/09 04:42:55;;;;;;;20.65;13.63;;;-0.30;77.40;;;;;;4948063;29;20199;-82
2022/03/09 04:45:23;;;;;;;21.80;12.80;;;-0.30;77.80;;;;;;4943458;29;20195;-81
2022/03/09 04:47:50;;;;;;;19.63;14.05;;;-0.30;78.00;;;;;;4942151;29;20194;-82
2022/03/09 04:50:17;;;;;;;18.25;13.40;;;-0.30;78.10;;;;;;4946225;29;20762;-82
2022/03/09 04:52:44;;;;;;;24.00;14.52;;;-0.40;78.50;;;;;;4945901;29;20199;-81
2022/03/09 04:55:10;;;;;;;24.50;14.73;;;-0.40;78.70;;;;;;4945731;29;20206;-82
2022/03/09 04:57:39;;;;;;;32.50;14.65;;;-0.20;79.20;;;;;;4948890;29;20202;-82
2022/03/09 05:00:07;;;;;;;24.00;15.10;;;-0.10;78.50;;;;;;4935410;29;20293;-82
2022/03/09 05:02:34;;;;;;;19.08;13.65;;;-0.20;77.90;;;;;;4940168;29;20202;-83
2022/03/09 05:05:00;;;;;;;19.23;13.88;;;-0.30;78.00;;;;;;4939150;29;20210;-83
2022/03/09 05:07:27;;;;;;;20.30;12.48;;;-0.40;78.90;;;;;;4931829;29;20591;-82
2022/03/09 05:09:54;;;;;;;20.25;14.65;;;-0.40;79.40;;;;;;4937992;29;20190;-82
2022/03/09 05:12:21;;;;;;;26.02;14.85;;;-0.40;79.30;;;;;;4929769;29;20210;-83
2022/03/09 05:14:49;;;;;;;21.58;14.30;;;-0.40;79.40;;;;;;4932934;29;20198;-82
2022/03/09 05:17:15;;;;;;;16.40;12.73;;;-0.40;79.70;;;;;;4949315;28;20231;-81
2022/03/09 05:19:42;;;;;;;22.42;16.80;;;-0.40;79.30;;;;;;4941054;29;20215;-83
2022/03/09 05:22:09;;;;;;;22.77;13.45;;;-0.40;79.60;;;;;;4931671;29;20237;-83
2022/03/09 05:24:35;;;;;;;19.92;15.45;;;-0.30;79.70;;;;;;4929247;29;20665;-82
2022/03/09 05:27:02;;;;;;;19.50;14.23;;;-0.30;79.80;;;;;;4928984;29;20222;-83
2022/03/09 05:29:29;;;;;;;19.63;13.65;;;-0.40;79.60;;;;;;4928464;29;20190;-82
2022/03/09 05:31:57;;;;;;;21.33;14.27;;;-0.40;79.50;;;;;;4930489;29;20592;-82
2022/03/09 05:34:24;;;;;;;19.13;14.40;;;-0.40;79.60;;;;;;4931111;29;20686;-83
2022/03/09 05:36:51;;;;;;;21.95;13.68;;;-0.40;79.80;;;;;;4931299;29;20651;-83
2022/03/09 05:39:18;;;;;;;22.60;13.07;;;-0.40;79.60;;;;;;4936027;29;20209;-82
2022/03/09 05:41:44;;;;;;;20.73;15.38;;;-0.40;79.80;;;;;;4944962;29;20218;-82
2022/03/09 05:44:11;;;;;;;24.17;15.55;;;-0.40;79.60;;;;;;4936794;29;20198;-83
2022/03/09 05:46:38;;;;;;;22.17;14.10;;;-0.40;79.70;;;;;;4930614;29;20210;-82
2022/03/09 05:49:06;;;;;;;19.15;13.70;;;-0.50;79.80;;;;;;4929857;29;20215;-83
2022/03/09 05:51:33;;;;;;;23.63;14.85;;;-0.40;79.80;;;;;;4934614;29;20248;-82
2022/03/09 05:54:00;;;;;;;24.35;14.98;;;-0.30;79.40;;;;;;4934262;29;20190;-83
2022/03/09 05:56:26;;;;;;;22.20;13.65;;;-0.40;79.00;;;;;;4940615;29;20185;-81
2022/03/09 05:58:53;;;;;;;26.23;15.52;;;-0.40;79.70;;;;;;4952319;28;20195;-83
2022/03/09 06:01:23;;;;;;;23.45;14.32;;;-0.40;80.00;;;;;;4946364;28;20221;-81
2022/03/09 06:03:50;;;;;;;24.65;15.80;;;-0.40;80.10;;;;;;4943603;28;20203;-82
2022/03/09 06:06:18;;;;;;;32.88;15.80;;;-0.40;80.00;;;;;;4940958;29;20201;-82
2022/03/09 06:08:44;;;;;;;30.35;15.15;;;-0.40;79.60;;;;;;4940439;29;20208;-82
2022/03/09 06:11:11;;;;;;;29.73;14.63;;;-0.40;79.40;;;;;;4936570;29;20215;-83
2022/03/09 06:13:38;;;;;;;20.67;12.85;;;-0.40;79.60;;;;;;4941494;29;20497;-82
2022/03/09 06:16:05;;;;;;;29.17;16.42;;;-0.40;79.80;;;;;;4939550;29;20210;-83
2022/03/09 06:18:32;;;;;;;20.75;14.50;;;-0.30;79.70;;;;;;4939141;29;20206;-84
2022/03/09 06:20:59;;;;;;;25.88;14.80;;;-0.40;79.20;;;;;;4937597;29;20332;-82
2022/03/09 06:23:27;;;;;;;23.05;16.17;;;-0.30;79.20;;;;;;4938384;29;20194;-83
2022/03/09 06:25:53;;;;;;;26.33;16.33;;;-0.30;78.80;;;;;;4943241;29;20574;-77
2022/03/09 06:28:20;;;;;;;23.67;13.38;;;-0.30;79.40;;;;;;4940976;29;20225;-77
2022/03/09 06:30:47;;;;;;;23.15;14.95;;;-0.20;79.40;;;;;;4936698;29;20225;-78
2022/03/09 06:33:14;;;;;;;22.15;15.38;;;-0.20;79.00;;;;;;4932292;29;20203;-81
2022/03/09 06:35:41;;;;;;;24.20;15.65;;;-0.20;78.90;;;;;;4933626;29;20600;-81
2022/03/09 06:38:08;;;;;;;23.70;15.38;;;-0.10;78.60;;;;;;4934909;29;20202;-82
2022/03/09 06:40:36;;;;;;;21.90;15.18;;;-0.10;78.40;;;;;;4948689;29;20214;-80
2022/03/09 06:43:02;;;;;;;26.27;16.00;;;-0.20;78.50;;;;;;4945924;29;20241;-82
2022/03/09 06:45:29;;;;;;;27.92;17.38;;;-0.20;79.10;;;;;;4936681;29;20202;-81
2022/03/09 06:47:56;;;;;;;28.55;18.95;;;0.00;79.00;;;;;;4946135;28;20712;-80
2022/03/09 06:50:24;;;;;;;29.30;17.40;;;0.00;78.60;;;;;;4952285;28;20222;-82
2022/03/09 06:52:51;;;;;;;33.65;18.17;;;0.10;77.70;;;;;;4950068;29;20226;-80
2022/03/09 06:55:21;;;;;;;24.95;15.13;;;0.10;77.30;;;;;;4945857;29;20194;-82
2022/03/09 06:57:49;;;;;;;27.02;16.75;;;0.20;77.30;;;;;;4938305;29;20198;-80
2022/03/09 07:00:17;;;;;;;20.65;15.55;;;0.20;76.80;;;;;;4934225;29;20222;-82
2022/03/09 07:02:45;;;;;;;35.97;16.17;;;0.20;76.40;;;;;;4934330;29;20203;-81
2022/03/09 07:05:12;;;;;;;27.60;16.33;;;0.30;76.30;;;;;;4933518;29;20218;-80
2022/03/09 07:07:39;;;;;;;23.73;16.25;;;0.30;75.80;;;;;;4943442;29;20217;-81
2022/03/09 07:10:10;;;;;;;23.52;15.15;;;0.40;75.20;;;;;;4942118;29;20207;-81
2022/03/09 07:12:37;;;;;;;28.20;17.27;;;0.50;74.90;;;;;;4937511;29;20202;-81
2022/03/09 07:15:06;;;;;;;24.05;15.20;;;0.60;74.00;;;;;;4935663;29;20202;-81
2022/03/09 07:17:33;;;;;;;20.45;15.25;;;0.70;73.70;;;;;;4946599;29;20226;-83
2022/03/09 07:19:59;;;;;;;23.10;15.93;;;0.80;72.70;;;;;;4937562;29;20228;-82
2022/03/09 07:22:26;;;;;;;26.90;14.32;;;0.90;71.90;;;;;;4935102;29;20195;-81
2022/03/09 07:24:53;;;;;;;20.63;13.55;;;0.90;71.30;;;;;;4934786;29;20218;-82
2022/03/09 07:27:20;;;;;;;24.48;13.88;;;1.00;70.80;;;;;;4934428;29;20206;-82
2022/03/09 07:29:46;;;;;;;18.17;13.63;;;1.10;70.00;;;;;;4934851;29;20230;-81
2022/03/09 07:32:15;;;;;;;16.73;13.80;;;1.20;69.80;;;;;;4938366;29;20225;-82
2022/03/09 07:34:43;;;;;;;22.17;14.10;;;1.20;69.40;;;;;;4943805;29;20198;-82
2022/03/09 07:37:10;;;;;;;20.55;14.23;;;1.30;68.70;;;;;;4936306;29;20581;-83
2022/03/09 07:39:37;;;;;;;22.73;14.55;;;1.40;68.70;;;;;;4937350;29;20688;-81
2022/03/09 07:42:05;;;;;;;19.00;15.32;;;1.50;68.60;;;;;;4932915;29;20227;-81
2022/03/09 07:44:31;;;;;;;20.40;14.70;;;1.50;68.10;;;;;;4935197;29;20195;-82
2022/03/09 07:46:58;;;;;;;24.17;13.70;;;1.60;67.60;;;;;;4932081;29;20207;-82
2022/03/09 07:49:26;;;;;;;23.70;14.30;;;1.70;67.60;;;;;;4935911;29;20198;-82
2022/03/09 07:51:54;;;;;;;19.13;14.68;;;1.90;67.60;;;;;;4948764;29;20234;-80
2022/03/09 07:54:21;;;;;;;20.65;14.70;;;1.90;66.80;;;;;;4949949;28;20205;-80
2022/03/09 07:56:49;;;;;;;22.63;15.20;;;2.00;65.50;;;;;;4945507;28;20267;-80
2022/03/09 07:59:16;;;;;;;21.00;14.90;;;2.10;65.20;;;;;;4947059;29;20194;-81
2022/03/09 08:01:43;;;;;;;20.83;14.68;;;2.20;65.00;;;;;;4937582;29;20222;-81
2022/03/09 08:04:10;;;;;;;18.90;15.52;;;2.40;64.70;;;;;;4939735;29;20281;-82
2022/03/09 08:06:40;;;;;;;22.52;15.70;;;2.90;64.80;;;;;;4939817;29;20201;-81
2022/03/09 08:09:07;;;;;;;18.83;14.02;;;3.60;63.30;;;;;;4935605;29;20221;-82
2022/03/09 08:11:34;;;;;;;20.75;15.23;;;4.40;60.20;;;;;;4934813;29;20221;-81
2022/03/09 08:14:01;;;;;;;19.92;15.48;;;5.50;58.80;;;;;;4931501;29;20854;-83
2022/03/09 08:16:27;;;;;;;18.50;15.20;;;6.30;55.80;;;;;;4931820;29;20205;-82
2022/03/09 08:18:54;;;;;;;22.67;15.37;;;6.80;54.10;;;;;;4928413;29;20453;-81
2022/03/09 08:21:21;;;;;;;28.53;17.40;;;7.60;53.10;;;;;;4931545;29;20487;-82
2022/03/09 08:23:49;;;;;;;20.40;16.50;;;7.70;51.80;;;;;;4934333;29;20438;-81
2022/03/09 08:26:15;;;;;;;19.27;16.30;;;7.60;51.00;;;;;;4934499;29;21201;-82
2022/03/09 08:28:42;;;;;;;29.67;17.20;;;7.50;51.10;;;;;;4942879;29;20438;-82
2022/03/09 08:31:09;;;;;;;19.77;14.37;;;7.60;51.20;;;;;;4945078;29;20463;-79
2022/03/09 08:33:36;;;;;;;17.47;14.13;;;8.20;50.80;;;;;;4951915;28;20497;-82
2022/03/09 08:36:04;;;;;;;18.00;14.40;;;9.10;48.60;;;;;;4944322;29;20457;-82
2022/03/09 08:38:30;;;;;;;18.13;14.90;;;9.70;47.20;;;;;;4939282;29;20458;-83
2022/03/09 08:40:59;;;;;;;18.73;14.37;;;10.10;45.30;;;;;;4930652;29;20996;-82
2022/03/09 08:43:25;;;;;;;17.17;14.30;;;11.00;44.50;;;;;;4931613;29;20485;-82
2022/03/09 08:45:52;;;;;;;16.90;14.40;;;11.70;43.10;;;;;;4929132;29;20481;-81
2022/03/09 08:48:19;;;;;;;19.03;15.97;;;12.60;41.90;;;;;;4934661;29;20477;-82
2022/03/09 08:50:46;;;;;;;19.33;16.73;;;12.80;40.70;;;;;;4933816;29;20485;-81
2022/03/09 08:53:13;;;;;;;20.20;15.83;;;12.40;40.80;;;;;;4942037;29;20505;-81
2022/03/09 08:55:39;;;;;;;15.73;14.13;;;12.10;41.10;;;;;;4939744;29;20525;-82
2022/03/09 08:58:07;;;;;;;16.20;14.50;;;11.60;40.40;;;;;;4945744;29;20446;-82
2022/03/09 09:00:34;;;;;;;18.27;14.50;;;12.00;41.20;;;;;;4938916;29;20462;-81
2022/03/09 09:03:01;;;;;;;16.30;14.60;;;12.60;40.80;;;;;;4953975;28;20442;-81
2022/03/09 09:05:28;;;;;;;19.23;14.40;;;13.10;39.80;;;;;;4944431;29;20475;-83
2022/03/09 09:07:59;;;;;;;17.47;14.80;;;14.00;39.30;;;;;;4954230;29;20438;-85
2022/03/09 09:10:26;;;;;;;17.50;15.00;;;14.90;37.80;;;;;;4939425;29;20469;-84
2022/03/09 09:12:54;;;;;;;18.67;16.70;;;14.80;37.20;;;;;;4936964;29;20475;-84
2022/03/09 09:15:24;;;;;;;17.23;15.30;;;15.60;36.70;;;;;;4937385;29;20530;-82
2022/03/09 09:17:57;;;;;;;16.20;14.50;;;15.80;35.50;;;;;;4938452;29;20513;-84
2022/03/09 09:20:25;;;;;;;16.97;15.17;;;15.90;35.70;;;;;;4932724;29;20485;-82
2022/03/09 09:22:53;;;;;;;20.97;15.40;;;16.20;34.80;;;;;;4938512;29;20444;-82
2022/03/09 09:25:19;;;;;;;20.33;14.27;;;15.90;34.70;;;;;;4938344;29;20841;-82
2022/03/09 09:27:46;;;;;;;17.43;14.93;;;16.40;35.00;;;;;;4932888;29;20441;-86
2022/03/09 09:30:13;;;;;;;17.47;14.67;;;17.10;34.20;;;;;;4942053;29;20460;-84
2022/03/09 09:32:41;;;;;;;17.73;15.73;;;17.40;34.20;;;;;;4930417;29;20461;-85
2022/03/09 09:35:11;;;;;;;18.13;15.63;;;17.70;33.20;;;;;;4931238;29;20788;-84
2022/03/09 09:37:45;;;;;;;16.70;15.00;;;18.30;31.70;;;;;;4934910;29;20467;-84
2022/03/09 09:40:14;;;;;;;16.07;14.57;;;18.20;32.00;;;;;;4932158;29;20441;-84
2022/03/09 09:42:42;;;;;;;17.20;15.00;;;18.70;31.70;;;;;;4932329;29;20482;-84
2022/03/09 09:45:10;;;;;;;23.63;14.80;;;18.80;31.70;;;;;;4951338;28;20470;-86
2022/03/09 09:47:36;;;;;;;17.43;15.73;;;19.00;31.20;;;;;;4947614;28;20458;-84
2022/03/09 09:50:06;;;;;;;16.30;14.80;;;18.70;30.60;;;;;;4938765;29;20445;-85
2022/03/09 09:52:36;;;;;;;16.73;14.97;;;19.00;31.30;;;;;;4932905;29;20494;-84
2022/03/09 09:55:07;;;;;;;17.73;15.77;;;19.80;30.90;;;;;;4947202;29;20453;-85
2022/03/09 09:57:34;;;;;;;16.40;14.70;;;20.50;30.20;;;;;;4935362;28;20457;-84
2022/03/09 10:00:02;;;;;;;16.43;14.93;;;20.90;30.40;;;;;;4919861;29;20457;-84
2022/03/09 10:02:30;;;;;;;16.60;14.93;;;22.00;28.80;;;;;;4922556;29;21003;-84
2022/03/09 10:04:57;;;;;;;16.80;15.30;;;20.80;29.00;;;;;;4933379;29;20880;-85
2022/03/09 10:07:25;;;;;;;16.17;14.03;;;21.20;29.20;;;;;;4929814;29;20444;-84
2022/03/09 10:09:53;;;;;;;15.87;14.40;;;20.30;28.70;;;;;;4921296;29;21129;-85
2022/03/09 10:12:27;;;;;;;15.23;13.83;;;20.20;29.20;;;;;;4931429;29;20964;-85
2022/03/09 10:14:56;;;;;;;17.60;15.80;;;21.00;29.20;;;;;;4924063;29;20479;-85
2022/03/09 10:17:25;;;;;;;17.00;14.07;;;20.50;28.90;;;;;;4930828;29;20459;-84
2022/03/09 10:19:54;;;;;;;16.23;14.53;;;21.50;28.30;;;;;;4928833;29;20523;-85
2022/03/09 10:23:15;;;;;;;16.90;15.20;;;21.00;28.20;;;;;;4928480;29;20572;-84
2022/03/09 10:25:44;;;;;;;15.87;14.40;;;22.10;28.10;;;;;;4947477;29;20924;-86
2022/03/09 10:28:12;;;;;;;14.80;13.50;;;22.70;27.40;;;;;;4934622;29;20819;-85
2022/03/09 10:30:40;;;;;;;20.57;18.67;;;23.20;27.50;;;;;;4925348;29;20485;-85
2022/03/09 10:33:08;;;;;;;14.87;13.47;;;23.60;26.40;;;;;;4923391;29;20457;-85
2022/03/09 10:35:46;;;;;;;15.47;13.87;;;22.50;26.30;;;;;;4929718;29;20875;-84
2022/03/09 10:38:26;;;;;;;15.33;13.90;;;23.00;26.20;;;;;;4929752;29;20892;-84
2022/03/09 10:40:56;;;;;;;16.03;14.47;;;22.70;26.70;;;;;;4926251;29;20477;-84
2022/03/09 10:43:26;;;;;;;15.63;14.03;;;23.20;25.90;;;;;;4923006;29;20450;-84
2022/03/09 10:46:05;;;;;;;16.17;14.57;;;24.10;25.70;;;;;;4926818;29;21018;-85
2022/03/09 10:48:53;;;;;;;16.03;14.63;;;22.80;25.50;;;;;;4921541;29;20453;-85
2022/03/09 10:51:28;;;;;;;16.67;15.00;;;21.80;25.90;;;;;;4929252;29;20477;-84
2022/03/09 10:53:55;;;;;;;16.80;15.10;;;21.80;26.50;;;;;;4925165;29;20448;-85
2022/03/09 10:56:24;;;;;;;16.87;15.17;;;23.70;25.90;;;;;;4926871;29;20454;-84
2022/03/09 10:58:51;;;;;;;18.97;17.20;;;23.40;25.20;;;;;;4923041;29;20858;-85
2022/03/09 11:01:18;;;;;;;18.27;16.67;;;24.80;25.90;;;;;;4926973;29;20501;-86
2022/03/09 11:03:45;;;;;;;19.17;17.33;;;25.50;25.00;;;;;;4934798;29;20456;-84
2022/03/09 11:06:14;;;;;;;18.37;16.70;;;26.30;24.00;;;;;;4924554;29;20982;-85
2022/03/09 11:08:41;;;;;;;18.80;16.80;;;27.60;23.40;;;;;;4931731;29;20452;-85
2022/03/09 11:11:09;;;;;;;20.50;18.47;;;26.80;22.60;;;;;;4925986;29;20469;-84
2022/03/09 11:13:39;;;;;;;17.13;15.73;;;27.00;22.60;;;;;;4929632;29;20450;-85
2022/03/09 11:16:07;;;;;;;18.50;16.70;;;26.10;22.10;;;;;;4932351;29;20457;-85
2022/03/09 11:18:36;;;;;;;19.33;17.30;;;23.80;23.10;;;;;;4924711;29;20466;-85
2022/03/09 11:21:05;;;;;;;18.80;17.00;;;23.70;24.00;;;;;;4936700;28;20464;-85
2022/03/09 11:23:33;;;;;;;18.60;17.00;;;25.90;23.80;;;;;;4950989;28;20459;-90
2022/03/09 11:26:02;;;;;;;19.77;18.07;;;26.50;23.10;;;;;;4940226;29;20447;-86
2022/03/09 11:28:36;;;;;;;18.37;16.40;;;25.20;23.90;;;;;;4951036;28;20465;-87
2022/03/09 11:31:07;;;;;;;20.17;18.00;;;25.40;24.50;;;;;;4936275;29;20478;-85
2022/03/09 11:33:37;;;;;;;19.50;17.70;;;23.70;25.30;;;;;;4931748;29;20957;-86
2022/03/09 11:36:35;;;;;;;18.60;16.87;;;24.40;25.20;;;;;;4933633;29;20456;-85
2022/03/09 11:39:22;;;;;;;18.57;17.00;;;25.30;24.30;;;;;;4936462;29;21913;-86
2022/03/09 11:41:48;;;;;;;18.20;16.30;;;26.10;23.50;;;;;;4952784;28;20461;-85
2022/03/09 11:44:30;;;;;;;19.17;17.47;;;27.00;23.10;;;;;;4944063;28;20444;-79
2022/03/09 11:47:07;;;;;;;18.20;16.53;;;25.10;23.70;;;;;;4930592;29;20467;-79
2022/03/09 11:49:54;;;;;;;18.87;17.20;;;25.20;23.80;;;;;;4932120;29;20479;-77
2022/03/09 11:52:24;;;;;;;19.23;17.10;;;25.20;23.50;;;;;;4932393;29;20480;-79
2022/03/09 11:54:55;;;;;;;19.00;17.10;;;24.60;23.60;;;;;;4936910;29;21041;-77
2022/03/09 11:57:23;;;;;;;17.07;15.47;;;26.50;23.00;;;;;;4938866;29;20473;-78
2022/03/09 12:00:09;;;;;;;19.50;17.70;;;27.30;22.40;;;;;;4932647;29;20445;-78
2022/03/09 12:02:42;;;;;;;18.77;17.00;;;28.20;22.00;;;;;;4929999;29;20454;-81
2022/03/09 12:05:29;;;;;;;19.17;17.37;;;28.80;21.70;;;;;;4934550;29;20482;-83
2022/03/09 12:07:59;;;;;;;20.40;18.60;;;28.90;20.60;;;;;;4932691;29;20454;-82
2022/03/09 12:10:51;;;;;;;20.17;18.27;;;29.30;20.70;;;;;;4935166;29;20466;-82
2022/03/09 12:13:35;;;;;;;19.80;18.10;;;29.00;20.30;;;;;;4917644;29;21233;-83
2022/03/09 12:16:19;;;;;;;19.73;17.93;;;29.10;19.90;;;;;;4929775;29;20518;-83
2022/03/09 12:18:51;;;;;;;18.10;16.53;;;29.90;19.70;;;;;;4934342;29;20453;-84
2022/03/09 12:21:20;;;;;;;18.27;16.67;;;29.20;19.30;;;;;;4947387;29;20470;-83
2022/03/09 12:24:23;;;;;;;21.17;19.30;;;29.10;19.60;;;;;;4943020;29;20497;-84
2022/03/09 12:26:53;;;;;;;18.60;16.90;;;29.90;19.30;;;;;;4945193;29;20433;-85
2022/03/09 12:29:39;;;;;;;18.07;16.20;;;29.90;19.40;;;;;;4940230;29;20441;-84
2022/03/09 12:32:09;;;;;;;20.23;18.43;;;31.00;18.90;;;;;;4934615;29;20521;-84
2022/03/09 12:34:37;;;;;;;19.07;17.37;;;30.60;18.40;;;;;;4935658;29;20451;-84
2022/03/09 12:37:07;;;;;;;18.30;16.60;;;30.10;18.80;;;;;;4936223;29;20448;-85
2022/03/09 12:39:34;;;;;;;18.37;16.77;;;28.70;19.00;;;;;;4933765;29;20477;-84